sensor_id;sensor_type;location;lat;lon;timestamp;temperature;humidity
18597;DHT22;9428;50.950;6.912;2022-10-16T00:00:48;15.20;99.90
18597;DHT22;9428;50.950;6.912;2022-10-16T00:03:37;15.20;99.90
18597;DHT22;9428;50.950;6.912;2022-10-16T00:06:25;15.20;99.90
18597;DHT22;9428;50.950;6.912;2022-10-16T00:09:13;15.20;99.90
18597;DHT22;9428;50.950;6.912;2022-10-16T00:12:00;15.70;99.90
18597;DHT22;9428;50.950;6.912;2022-10-16T00:14:49;15.20;99.90
18597;DHT22;9428;50.950;6.912;2022-10-16T00:17:36;15.10;99.90
18597;DHT22;9428;50.950;6.912;2022-10-16T00:20:25;15.10;99.90
18597;DHT22;9428;50.950;6.912;2022-10-16T00:23:12;15.20;99.90
18597;DHT22;9428;50.950;6.912;2022-10-16T00:26:00;15.10;99.90
18597;DHT22;9428;50.950;6.912;2022-10-16T00:28:49;15.20;99.90
18597;DHT22;9428;50.950;6.912;2022-10-16T00:31:36;15.20;99.90
18597;DHT22;9428;50.950;6.912;2022-10-16T00:34:24;15.90;99.90
18597;DHT22;9428;50.950;6.912;2022-10-16T00:37:13;15.10;99.90
18597;DHT22;9428;50.950;6.912;2022-10-16T00:40:00;15.10;99.90
18597;DHT22;9428;50.950;6.912;2022-10-16T00:42:47;15.00;99.90
18597;DHT22;9428;50.950;6.912;2022-10-16T00:45:34;15.10;99.90
18597;DHT22;9428;50.950;6.912;2022-10-16T00:48:21;15.00;99.90
18597;DHT22;9428;50.950;6.912;2022-10-16T00:51:09;14.90;99.90
18597;DHT22;9428;50.950;6.912;2022-10-16T00:53:57;14.90;99.90
18597;DHT22;9428;50.950;6.912;2022-10-16T00:56:46;14.90;99.90
18597;DHT22;9428;50.950;6.912;2022-10-16T00:59:36;14.90;99.90
18597;DHT22;9428;50.950;6.912;2022-10-16T01:02:23;14.80;99.90
18597;DHT22;9428;50.950;6.912;2022-10-16T01:05:11;14.80;99.90
18597;DHT22;9428;50.950;6.912;2022-10-16T01:08:04;14.80;99.90
18597;DHT22;9428;50.950;6.912;2022-10-16T01:10:59;14.90;99.90
18597;DHT22;9428;50.950;6.912;2022-10-16T01:13:51;14.80;99.90
18597;DHT22;9428;50.950;6.912;2022-10-16T01:16:44;14.80;99.90
18597;DHT22;9428;50.950;6.912;2022-10-16T01:19:44;14.80;99.90
18597;DHT22;9428;50.950;6.912;2022-10-16T01:22:50;14.90;99.90
18597;DHT22;9428;50.950;6.912;2022-10-16T01:26:10;14.80;99.90
18597;DHT22;9428;50.950;6.912;2022-10-16T01:29:03;14.70;99.90
18597;DHT22;9428;50.950;6.912;2022-10-16T01:32:01;15.20;99.90
18597;DHT22;9428;50.950;6.912;2022-10-16T01:34:52;14.80;99.90
18597;DHT22;9428;50.950;6.912;2022-10-16T01:37:43;14.80;99.90
18597;DHT22;9428;50.950;6.912;2022-10-16T01:40:34;14.80;99.90
18597;DHT22;9428;50.950;6.912;2022-10-16T01:43:25;14.60;99.90
18597;DHT22;9428;50.950;6.912;2022-10-16T01:46:17;14.70;99.90
18597;DHT22;9428;50.950;6.912;2022-10-16T01:49:05;14.80;99.90
18597;DHT22;9428;50.950;6.912;2022-10-16T01:51:56;14.80;99.90
18597;DHT22;9428;50.950;6.912;2022-10-16T01:54:47;14.70;99.90
18597;DHT22;9428;50.950;6.912;2022-10-16T01:57:38;14.70;99.90
18597;DHT22;9428;50.950;6.912;2022-10-16T02:00:27;14.80;99.90
18597;DHT22;9428;50.950;6.912;2022-10-16T02:03:18;14.80;99.90
18597;DHT22;9428;50.950;6.912;2022-10-16T02:06:07;14.80;99.90
18597;DHT22;9428;50.950;6.912;2022-10-16T02:08:54;15.50;99.90
18597;DHT22;9428;50.950;6.912;2022-10-16T02:11:41;14.80;99.90
18597;DHT22;9428;50.950;6.912;2022-10-16T02:14:29;14.80;99.90
18597;DHT22;9428;50.950;6.912;2022-10-16T02:17:17;14.80;99.90
18597;DHT22;9428;50.950;6.912;2022-10-16T02:20:06;14.20;99.90
18597;DHT22;9428;50.950;6.912;2022-10-16T02:22:54;14.90;99.90
18597;DHT22;9428;50.950;6.912;2022-10-16T02:25:43;15.30;99.90
18597;DHT22;9428;50.950;6.912;2022-10-16T02:28:35;14.80;99.90
18597;DHT22;9428;50.950;6.912;2022-10-16T02:31:27;14.90;99.90
18597;DHT22;9428;50.950;6.912;2022-10-16T02:34:15;14.80;99.90
18597;DHT22;9428;50.950;6.912;2022-10-16T02:37:05;14.80;99.90
18597;DHT22;9428;50.950;6.912;2022-10-16T02:39:54;14.90;99.90
18597;DHT22;9428;50.950;6.912;2022-10-16T02:42:42;15.60;99.90
18597;DHT22;9428;50.950;6.912;2022-10-16T02:45:29;14.90;99.90
18597;DHT22;9428;50.950;6.912;2022-10-16T02:48:16;14.90;99.90
18597;DHT22;9428;50.950;6.912;2022-10-16T02:51:04;15.00;99.90
18597;DHT22;9428;50.950;6.912;2022-10-16T02:53:52;14.90;99.90
18597;DHT22;9428;50.950;6.912;2022-10-16T02:56:39;14.90;99.90
18597;DHT22;9428;50.950;6.912;2022-10-16T02:59:27;14.90;99.90
18597;DHT22;9428;50.950;6.912;2022-10-16T03:02:14;14.90;99.90
18597;DHT22;9428;50.950;6.912;2022-10-16T03:05:01;14.90;99.90
18597;DHT22;9428;50.950;6.912;2022-10-16T03:07:48;14.90;99.90
18597;DHT22;9428;50.950;6.912;2022-10-16T03:10:37;14.90;99.90
18597;DHT22;9428;50.950;6.912;2022-10-16T03:13:24;14.80;99.90
18597;DHT22;9428;50.950;6.912;2022-10-16T03:16:11;14.90;99.90
18597;DHT22;9428;50.950;6.912;2022-10-16T03:18:59;15.50;99.90
18597;DHT22;9428;50.950;6.912;2022-10-16T03:21:46;14.80;99.90
18597;DHT22;9428;50.950;6.912;2022-10-16T03:24:33;14.60;99.90
18597;DHT22;9428;50.950;6.912;2022-10-16T03:27:22;14.60;99.90
18597;DHT22;9428;50.950;6.912;2022-10-16T03:30:10;14.70;99.90
18597;DHT22;9428;50.950;6.912;2022-10-16T03:32:57;14.60;99.90
18597;DHT22;9428;50.950;6.912;2022-10-16T03:35:51;14.60;99.90
18597;DHT22;9428;50.950;6.912;2022-10-16T03:38:39;14.70;99.90
18597;DHT22;9428;50.950;6.912;2022-10-16T03:41:26;14.70;99.90
18597;DHT22;9428;50.950;6.912;2022-10-16T03:44:14;14.70;99.90
18597;DHT22;9428;50.950;6.912;2022-10-16T03:47:02;14.70;99.90
18597;DHT22;9428;50.950;6.912;2022-10-16T03:49:49;14.70;99.90
18597;DHT22;9428;50.950;6.912;2022-10-16T03:52:36;14.70;99.90
18597;DHT22;9428;50.950;6.912;2022-10-16T03:55:23;14.70;99.90
18597;DHT22;9428;50.950;6.912;2022-10-16T03:58:11;14.80;99.90
18597;DHT22;9428;50.950;6.912;2022-10-16T04:00:59;14.70;99.90
18597;DHT22;9428;50.950;6.912;2022-10-16T04:03:46;14.80;99.90
18597;DHT22;9428;50.950;6.912;2022-10-16T04:06:34;14.80;99.90
18597;DHT22;9428;50.950;6.912;2022-10-16T04:09:21;14.80;99.90
18597;DHT22;9428;50.950;6.912;2022-10-16T04:12:08;14.80;99.90
18597;DHT22;9428;50.950;6.912;2022-10-16T04:14:55;14.70;99.90
18597;DHT22;9428;50.950;6.912;2022-10-16T04:17:44;14.90;99.90
18597;DHT22;9428;50.950;6.912;2022-10-16T04:20:31;14.80;99.90
18597;DHT22;9428;50.950;6.912;2022-10-16T04:23:19;14.80;99.90
18597;DHT22;9428;50.950;6.912;2022-10-16T04:26:06;14.80;99.90
18597;DHT22;9428;50.950;6.912;2022-10-16T04:28:53;15.20;99.90
18597;DHT22;9428;50.950;6.912;2022-10-16T04:31:41;15.50;99.90
18597;DHT22;9428;50.950;6.912;2022-10-16T04:34:30;14.80;99.90
18597;DHT22;9428;50.950;6.912;2022-10-16T04:37:17;14.80;99.90
18597;DHT22;9428;50.950;6.912;2022-10-16T04:40:05;14.80;99.90
18597;DHT22;9428;50.950;6.912;2022-10-16T04:42:52;14.80;99.90
18597;DHT22;9428;50.950;6.912;2022-10-16T04:45:39;14.80;99.90
18597;DHT22;9428;50.950;6.912;2022-10-16T04:48:27;14.80;99.90
18597;DHT22;9428;50.950;6.912;2022-10-16T04:51:15;14.70;99.90
18597;DHT22;9428;50.950;6.912;2022-10-16T04:54:02;14.70;99.90
18597;DHT22;9428;50.950;6.912;2022-10-16T04:56:50;14.70;99.90
18597;DHT22;9428;50.950;6.912;2022-10-16T04:59:37;14.70;99.90
18597;DHT22;9428;50.950;6.912;2022-10-16T05:02:25;14.70;99.90
18597;DHT22;9428;50.950;6.912;2022-10-16T05:05:12;15.30;99.90
18597;DHT22;9428;50.950;6.912;2022-10-16T05:08:01;14.60;99.90
18597;DHT22;9428;50.950;6.912;2022-10-16T05:10:49;14.70;99.90
18597;DHT22;9428;50.950;6.912;2022-10-16T05:13:37;14.70;99.90
18597;DHT22;9428;50.950;6.912;2022-10-16T05:16:24;14.70;99.90
18597;DHT22;9428;50.950;6.912;2022-10-16T05:19:11;14.70;99.90
18597;DHT22;9428;50.950;6.912;2022-10-16T05:21:58;14.70;99.90
18597;DHT22;9428;50.950;6.912;2022-10-16T05:24:47;14.80;99.90
18597;DHT22;9428;50.950;6.912;2022-10-16T05:27:34;14.70;99.90
18597;DHT22;9428;50.950;6.912;2022-10-16T05:30:21;14.70;99.90
18597;DHT22;9428;50.950;6.912;2022-10-16T05:33:08;14.80;99.90
18597;DHT22;9428;50.950;6.912;2022-10-16T05:35:56;14.70;99.90
18597;DHT22;9428;50.950;6.912;2022-10-16T05:38:43;14.70;99.90
18597;DHT22;9428;50.950;6.912;2022-10-16T05:41:32;14.70;99.90
18597;DHT22;9428;50.950;6.912;2022-10-16T05:44:19;14.60;99.90
18597;DHT22;9428;50.950;6.912;2022-10-16T05:47:06;14.60;99.90
18597;DHT22;9428;50.950;6.912;2022-10-16T05:49:53;14.60;99.90
18597;DHT22;9428;50.950;6.912;2022-10-16T05:52:41;14.70;99.90
18597;DHT22;9428;50.950;6.912;2022-10-16T05:55:28;14.90;99.90
18597;DHT22;9428;50.950;6.912;2022-10-16T05:58:17;14.60;99.90
18597;DHT22;9428;50.950;6.912;2022-10-16T06:01:06;14.50;99.90
18597;DHT22;9428;50.950;6.912;2022-10-16T06:03:53;15.00;99.90
18597;DHT22;9428;50.950;6.912;2022-10-16T06:06:41;14.50;99.90
18597;DHT22;9428;50.950;6.912;2022-10-16T06:09:28;14.60;99.90
18597;DHT22;9428;50.950;6.912;2022-10-16T06:12:15;14.60;99.90
18597;DHT22;9428;50.950;6.912;2022-10-16T06:15:04;14.60;99.90
18597;DHT22;9428;50.950;6.912;2022-10-16T06:17:52;14.60;99.90
18597;DHT22;9428;50.950;6.912;2022-10-16T06:20:39;14.60;99.90
18597;DHT22;9428;50.950;6.912;2022-10-16T06:23:28;14.60;99.90
18597;DHT22;9428;50.950;6.912;2022-10-16T06:26:17;14.60;99.90
18597;DHT22;9428;50.950;6.912;2022-10-16T06:29:05;14.70;99.90
18597;DHT22;9428;50.950;6.912;2022-10-16T06:31:53;14.60;99.90
18597;DHT22;9428;50.950;6.912;2022-10-16T06:34:41;14.60;99.90
18597;DHT22;9428;50.950;6.912;2022-10-16T06:37:28;14.70;99.90
18597;DHT22;9428;50.950;6.912;2022-10-16T06:40:15;14.80;99.90
18597;DHT22;9428;50.950;6.912;2022-10-16T06:43:02;15.40;99.90
18597;DHT22;9428;50.950;6.912;2022-10-16T06:45:53;14.80;99.90
18597;DHT22;9428;50.950;6.912;2022-10-16T06:48:41;14.80;99.90
18597;DHT22;9428;50.950;6.912;2022-10-16T06:51:29;14.90;99.90
18597;DHT22;9428;50.950;6.912;2022-10-16T06:54:17;14.90;99.90
18597;DHT22;9428;50.950;6.912;2022-10-16T06:57:05;14.90;99.90
18597;DHT22;9428;50.950;6.912;2022-10-16T06:59:52;15.00;99.90
18597;DHT22;9428;50.950;6.912;2022-10-16T07:02:39;15.10;99.90
18597;DHT22;9428;50.950;6.912;2022-10-16T07:05:28;15.10;99.90
18597;DHT22;9428;50.950;6.912;2022-10-16T07:08:15;15.10;99.90
18597;DHT22;9428;50.950;6.912;2022-10-16T07:11:04;15.20;99.90
18597;DHT22;9428;50.950;6.912;2022-10-16T07:13:52;15.20;99.90
18597;DHT22;9428;50.950;6.912;2022-10-16T07:16:39;15.30;99.90
18597;DHT22;9428;50.950;6.912;2022-10-16T07:19:26;15.30;99.90
18597;DHT22;9428;50.950;6.912;2022-10-16T07:22:15;15.30;99.90
18597;DHT22;9428;50.950;6.912;2022-10-16T07:25:03;15.40;99.90
18597;DHT22;9428;50.950;6.912;2022-10-16T07:27:50;15.40;99.90
18597;DHT22;9428;50.950;6.912;2022-10-16T07:30:37;15.40;99.90
18597;DHT22;9428;50.950;6.912;2022-10-16T07:33:24;15.80;99.90
18597;DHT22;9428;50.950;6.912;2022-10-16T07:36:11;15.40;99.90
18597;DHT22;9428;50.950;6.912;2022-10-16T07:39:00;15.40;99.90
18597;DHT22;9428;50.950;6.912;2022-10-16T07:41:47;15.40;99.90
18597;DHT22;9428;50.950;6.912;2022-10-16T07:44:34;16.00;99.90
18597;DHT22;9428;50.950;6.912;2022-10-16T07:47:22;15.80;99.90
18597;DHT22;9428;50.950;6.912;2022-10-16T07:50:09;15.30;99.90
18597;DHT22;9428;50.950;6.912;2022-10-16T07:52:56;15.30;99.90
18597;DHT22;9428;50.950;6.912;2022-10-16T07:55:45;15.20;99.90
18597;DHT22;9428;50.950;6.912;2022-10-16T07:58:33;15.50;99.90
18597;DHT22;9428;50.950;6.912;2022-10-16T08:01:22;15.10;99.90
18597;DHT22;9428;50.950;6.912;2022-10-16T08:04:10;15.10;99.90
18597;DHT22;9428;50.950;6.912;2022-10-16T08:06:57;15.20;99.90
18597;DHT22;9428;50.950;6.912;2022-10-16T08:09:44;15.50;99.90
18597;DHT22;9428;50.950;6.912;2022-10-16T08:12:33;15.20;99.90
18597;DHT22;9428;50.950;6.912;2022-10-16T08:15:20;15.10;99.90
18597;DHT22;9428;50.950;6.912;2022-10-16T08:18:09;15.10;99.90
18597;DHT22;9428;50.950;6.912;2022-10-16T08:20:57;14.90;99.90
18597;DHT22;9428;50.950;6.912;2022-10-16T08:23:46;15.20;99.90
18597;DHT22;9428;50.950;6.912;2022-10-16T08:26:33;15.30;99.90
18597;DHT22;9428;50.950;6.912;2022-10-16T08:29:21;15.30;99.90
18597;DHT22;9428;50.950;6.912;2022-10-16T08:32:08;15.30;99.90
18597;DHT22;9428;50.950;6.912;2022-10-16T08:34:56;15.40;99.90
18597;DHT22;9428;50.950;6.912;2022-10-16T08:37:43;15.50;99.90
18597;DHT22;9428;50.950;6.912;2022-10-16T08:40:32;15.40;99.90
18597;DHT22;9428;50.950;6.912;2022-10-16T08:43:40;15.20;99.90
18597;DHT22;9428;50.950;6.912;2022-10-16T08:46:39;15.40;99.90
18597;DHT22;9428;50.950;6.912;2022-10-16T08:49:30;15.40;99.90
18597;DHT22;9428;50.950;6.912;2022-10-16T08:52:17;15.40;99.90
18597;DHT22;9428;50.950;6.912;2022-10-16T08:55:05;15.40;99.90
18597;DHT22;9428;50.950;6.912;2022-10-16T08:57:53;15.40;99.90
18597;DHT22;9428;50.950;6.912;2022-10-16T09:00:41;15.30;99.90
18597;DHT22;9428;50.950;6.912;2022-10-16T09:03:42;15.40;99.90
18597;DHT22;9428;50.950;6.912;2022-10-16T09:06:45;15.50;99.90
18597;DHT22;9428;50.950;6.912;2022-10-16T09:09:48;15.50;99.90
18597;DHT22;9428;50.950;6.912;2022-10-16T09:12:44;15.50;99.90
18597;DHT22;9428;50.950;6.912;2022-10-16T09:15:40;15.20;99.90
18597;DHT22;9428;50.950;6.912;2022-10-16T09:18:35;16.30;99.90
18597;DHT22;9428;50.950;6.912;2022-10-16T09:21:27;15.50;99.90
18597;DHT22;9428;50.950;6.912;2022-10-16T09:24:18;15.80;99.90
18597;DHT22;9428;50.950;6.912;2022-10-16T09:27:07;15.60;99.90
18597;DHT22;9428;50.950;6.912;2022-10-16T09:29:56;15.70;99.90
18597;DHT22;9428;50.950;6.912;2022-10-16T09:32:45;15.70;99.90
18597;DHT22;9428;50.950;6.912;2022-10-16T09:35:37;15.70;99.90
18597;DHT22;9428;50.950;6.912;2022-10-16T09:38:27;16.60;99.90
18597;DHT22;9428;50.950;6.912;2022-10-16T09:41:17;16.50;99.90
18597;DHT22;9428;50.950;6.912;2022-10-16T09:44:17;15.80;99.90
18597;DHT22;9428;50.950;6.912;2022-10-16T09:47:12;15.80;99.90
18597;DHT22;9428;50.950;6.912;2022-10-16T09:50:02;16.50;99.90
18597;DHT22;9428;50.950;6.912;2022-10-16T09:53:03;15.90;99.90
18597;DHT22;9428;50.950;6.912;2022-10-16T09:55:52;16.10;99.90
18597;DHT22;9428;50.950;6.912;2022-10-16T09:58:42;15.90;99.90
18597;DHT22;9428;50.950;6.912;2022-10-16T10:01:35;15.90;99.90
18597;DHT22;9428;50.950;6.912;2022-10-16T10:04:24;15.90;99.90
18597;DHT22;9428;50.950;6.912;2022-10-16T10:07:18;16.50;99.90
18597;DHT22;9428;50.950;6.912;2022-10-16T10:10:21;16.20;99.90
18597;DHT22;9428;50.950;6.912;2022-10-16T10:13:17;16.20;99.90
18597;DHT22;9428;50.950;6.912;2022-10-16T10:16:06;16.20;99.90
18597;DHT22;9428;50.950;6.912;2022-10-16T10:18:58;16.50;99.90
18597;DHT22;9428;50.950;6.912;2022-10-16T10:21:46;16.20;99.90
18597;DHT22;9428;50.950;6.912;2022-10-16T10:24:33;16.20;99.90
18597;DHT22;9428;50.950;6.912;2022-10-16T10:27:26;16.40;99.90
18597;DHT22;9428;50.950;6.912;2022-10-16T10:30:20;16.50;99.90
18597;DHT22;9428;50.950;6.912;2022-10-16T10:33:19;16.40;99.90
18597;DHT22;9428;50.950;6.912;2022-10-16T10:36:16;16.40;99.90
18597;DHT22;9428;50.950;6.912;2022-10-16T10:39:11;16.50;99.90
18597;DHT22;9428;50.950;6.912;2022-10-16T10:42:08;16.60;99.90
18597;DHT22;9428;50.950;6.912;2022-10-16T10:45:26;17.00;99.90
18597;DHT22;9428;50.950;6.912;2022-10-16T10:48:24;16.90;99.90
18597;DHT22;9428;50.950;6.912;2022-10-16T10:51:21;16.80;99.90
18597;DHT22;9428;50.950;6.912;2022-10-16T10:54:15;16.90;99.90
18597;DHT22;9428;50.950;6.912;2022-10-16T10:57:10;16.90;99.90
18597;DHT22;9428;50.950;6.912;2022-10-16T11:00:10;16.90;99.90
18597;DHT22;9428;50.950;6.912;2022-10-16T11:03:13;17.00;99.90
18597;DHT22;9428;50.950;6.912;2022-10-16T11:06:09;17.10;99.90
18597;DHT22;9428;50.950;6.912;2022-10-16T11:09:02;17.10;99.90
18597;DHT22;9428;50.950;6.912;2022-10-16T11:11:54;17.10;99.90
18597;DHT22;9428;50.950;6.912;2022-10-16T11:14:48;17.20;99.90
18597;DHT22;9428;50.950;6.912;2022-10-16T11:17:39;17.20;99.90
18597;DHT22;9428;50.950;6.912;2022-10-16T11:20:32;17.10;99.90
18597;DHT22;9428;50.950;6.912;2022-10-16T11:23:24;17.10;99.90
18597;DHT22;9428;50.950;6.912;2022-10-16T11:26:16;17.20;99.90
18597;DHT22;9428;50.950;6.912;2022-10-16T11:29:13;17.40;99.90
18597;DHT22;9428;50.950;6.912;2022-10-16T11:32:06;17.60;99.90
18597;DHT22;9428;50.950;6.912;2022-10-16T11:35:02;17.60;99.90
18597;DHT22;9428;50.950;6.912;2022-10-16T11:37:53;17.70;99.90
18597;DHT22;9428;50.950;6.912;2022-10-16T11:40:47;17.80;99.90
18597;DHT22;9428;50.950;6.912;2022-10-16T11:43:39;17.70;99.90
18597;DHT22;9428;50.950;6.912;2022-10-16T11:46:29;17.80;99.90
18597;DHT22;9428;50.950;6.912;2022-10-16T11:49:20;17.80;99.90
18597;DHT22;9428;50.950;6.912;2022-10-16T11:52:14;17.90;99.90
18597;DHT22;9428;50.950;6.912;2022-10-16T11:55:13;17.90;99.90
18597;DHT22;9428;50.950;6.912;2022-10-16T11:58:03;17.90;99.90
18597;DHT22;9428;50.950;6.912;2022-10-16T12:00:57;17.90;99.90
18597;DHT22;9428;50.950;6.912;2022-10-16T12:03:50;17.90;99.90
18597;DHT22;9428;50.950;6.912;2022-10-16T12:06:42;18.00;99.90
18597;DHT22;9428;50.950;6.912;2022-10-16T12:09:34;17.90;99.90
18597;DHT22;9428;50.950;6.912;2022-10-16T12:12:27;17.90;99.90
18597;DHT22;9428;50.950;6.912;2022-10-16T12:15:22;17.80;99.90
18597;DHT22;9428;50.950;6.912;2022-10-16T12:18:21;17.90;99.90
18597;DHT22;9428;50.950;6.912;2022-10-16T12:21:10;18.10;99.90
18597;DHT22;9428;50.950;6.912;2022-10-16T12:24:03;18.10;99.90
18597;DHT22;9428;50.950;6.912;2022-10-16T12:26:51;18.20;99.90
18597;DHT22;9428;50.950;6.912;2022-10-16T12:29:41;18.30;99.90
18597;DHT22;9428;50.950;6.912;2022-10-16T12:32:31;18.30;99.90
18597;DHT22;9428;50.950;6.912;2022-10-16T12:35:21;18.30;99.90
18597;DHT22;9428;50.950;6.912;2022-10-16T12:38:16;18.40;99.90
18597;DHT22;9428;50.950;6.912;2022-10-16T12:41:06;18.40;99.90
18597;DHT22;9428;50.950;6.912;2022-10-16T12:43:54;18.30;99.90
18597;DHT22;9428;50.950;6.912;2022-10-16T12:46:43;18.30;99.90
18597;DHT22;9428;50.950;6.912;2022-10-16T12:49:35;18.10;99.90
18597;DHT22;9428;50.950;6.912;2022-10-16T12:52:27;18.00;99.90
18597;DHT22;9428;50.950;6.912;2022-10-16T12:55:17;17.90;99.90
18597;DHT22;9428;50.950;6.912;2022-10-16T12:58:16;17.80;99.90
18597;DHT22;9428;50.950;6.912;2022-10-16T13:01:13;17.80;99.90
18597;DHT22;9428;50.950;6.912;2022-10-16T13:04:23;17.80;99.90
18597;DHT22;9428;50.950;6.912;2022-10-16T13:07:41;17.70;99.90
18597;DHT22;9428;50.950;6.912;2022-10-16T13:10:35;17.70;99.90
18597;DHT22;9428;50.950;6.912;2022-10-16T13:13:47;17.80;99.90
18597;DHT22;9428;50.950;6.912;2022-10-16T13:16:48;18.00;99.90
18597;DHT22;9428;50.950;6.912;2022-10-16T13:19:43;18.00;99.90
18597;DHT22;9428;50.950;6.912;2022-10-16T13:22:37;18.00;99.90
18597;DHT22;9428;50.950;6.912;2022-10-16T13:25:35;18.00;99.90
18597;DHT22;9428;50.950;6.912;2022-10-16T13:28:29;17.90;99.90
18597;DHT22;9428;50.950;6.912;2022-10-16T13:31:20;17.70;99.90
18597;DHT22;9428;50.950;6.912;2022-10-16T13:34:13;17.90;99.90
18597;DHT22;9428;50.950;6.912;2022-10-16T13:37:02;17.90;99.90
18597;DHT22;9428;50.950;6.912;2022-10-16T13:40:12;17.90;99.90
18597;DHT22;9428;50.950;6.912;2022-10-16T13:43:04;17.80;99.90
18597;DHT22;9428;50.950;6.912;2022-10-16T13:45:57;18.00;99.90
18597;DHT22;9428;50.950;6.912;2022-10-16T13:48:55;17.90;99.90
18597;DHT22;9428;50.950;6.912;2022-10-16T13:51:54;18.00;99.90
18597;DHT22;9428;50.950;6.912;2022-10-16T13:54:43;18.10;99.90
18597;DHT22;9428;50.950;6.912;2022-10-16T13:57:30;18.10;99.90
18597;DHT22;9428;50.950;6.912;2022-10-16T14:00:19;18.10;99.90
18597;DHT22;9428;50.950;6.912;2022-10-16T14:03:14;18.00;99.90
18597;DHT22;9428;50.950;6.912;2022-10-16T14:06:03;18.00;99.90
18597;DHT22;9428;50.950;6.912;2022-10-16T14:08:57;18.10;99.90
18597;DHT22;9428;50.950;6.912;2022-10-16T14:11:49;18.20;99.90
18597;DHT22;9428;50.950;6.912;2022-10-16T14:14:42;18.20;99.90
18597;DHT22;9428;50.950;6.912;2022-10-16T14:17:32;18.20;99.90
18597;DHT22;9428;50.950;6.912;2022-10-16T14:20:23;18.20;99.90
18597;DHT22;9428;50.950;6.912;2022-10-16T14:23:23;18.20;99.90
18597;DHT22;9428;50.950;6.912;2022-10-16T14:26:17;18.20;99.90
18597;DHT22;9428;50.950;6.912;2022-10-16T14:29:12;18.10;99.90
18597;DHT22;9428;50.950;6.912;2022-10-16T14:32:01;18.00;99.90
18597;DHT22;9428;50.950;6.912;2022-10-16T14:34:53;18.10;99.90
18597;DHT22;9428;50.950;6.912;2022-10-16T14:37:40;18.10;99.90
18597;DHT22;9428;50.950;6.912;2022-10-16T14:40:30;18.00;99.90
18597;DHT22;9428;50.950;6.912;2022-10-16T14:43:22;18.00;99.90
18597;DHT22;9428;50.950;6.912;2022-10-16T14:46:15;18.10;99.90
18597;DHT22;9428;50.950;6.912;2022-10-16T14:49:12;18.10;99.90
18597;DHT22;9428;50.950;6.912;2022-10-16T14:52:00;18.20;99.90
18597;DHT22;9428;50.950;6.912;2022-10-16T14:54:48;18.20;99.90
18597;DHT22;9428;50.950;6.912;2022-10-16T14:57:37;18.20;99.90
18597;DHT22;9428;50.950;6.912;2022-10-16T15:00:25;18.30;99.90
18597;DHT22;9428;50.950;6.912;2022-10-16T15:03:13;18.20;99.90
18597;DHT22;9428;50.950;6.912;2022-10-16T15:06:01;18.20;99.90
18597;DHT22;9428;50.950;6.912;2022-10-16T15:08:48;18.20;99.90
18597;DHT22;9428;50.950;6.912;2022-10-16T15:11:36;18.10;99.90
18597;DHT22;9428;50.950;6.912;2022-10-16T15:14:23;18.10;99.90
18597;DHT22;9428;50.950;6.912;2022-10-16T15:17:11;18.10;99.90
18597;DHT22;9428;50.950;6.912;2022-10-16T15:19:59;18.10;99.90
18597;DHT22;9428;50.950;6.912;2022-10-16T15:22:46;18.00;99.90
18597;DHT22;9428;50.950;6.912;2022-10-16T15:25:36;18.00;99.90
18597;DHT22;9428;50.950;6.912;2022-10-16T15:28:25;18.00;99.90
18597;DHT22;9428;50.950;6.912;2022-10-16T15:31:13;18.00;99.90
18597;DHT22;9428;50.950;6.912;2022-10-16T15:34:00;18.00;99.90
18597;DHT22;9428;50.950;6.912;2022-10-16T15:36:51;17.90;99.90
18597;DHT22;9428;50.950;6.912;2022-10-16T15:39:38;17.90;99.90
18597;DHT22;9428;50.950;6.912;2022-10-16T15:42:25;17.90;99.90
18597;DHT22;9428;50.950;6.912;2022-10-16T15:45:13;17.90;99.90
18597;DHT22;9428;50.950;6.912;2022-10-16T15:48:00;17.80;99.90
18597;DHT22;9428;50.950;6.912;2022-10-16T15:50:47;17.80;99.90
18597;DHT22;9428;50.950;6.912;2022-10-16T15:53:36;17.80;99.90
18597;DHT22;9428;50.950;6.912;2022-10-16T15:56:24;17.80;99.90
18597;DHT22;9428;50.950;6.912;2022-10-16T15:59:11;17.80;99.90
18597;DHT22;9428;50.950;6.912;2022-10-16T16:01:58;17.80;99.90
18597;DHT22;9428;50.950;6.912;2022-10-16T16:04:45;17.70;99.90
18597;DHT22;9428;50.950;6.912;2022-10-16T16:07:33;17.80;99.90
18597;DHT22;9428;50.950;6.912;2022-10-16T16:10:22;17.70;99.90
18597;DHT22;9428;50.950;6.912;2022-10-16T16:13:09;17.60;99.90
18597;DHT22;9428;50.950;6.912;2022-10-16T16:15:57;17.60;99.90
18597;DHT22;9428;50.950;6.912;2022-10-16T16:18:44;17.60;99.90
18597;DHT22;9428;50.950;6.912;2022-10-16T16:21:31;17.60;99.90
18597;DHT22;9428;50.950;6.912;2022-10-16T16:24:19;17.60;99.90
18597;DHT22;9428;50.950;6.912;2022-10-16T16:27:08;17.50;99.90
18597;DHT22;9428;50.950;6.912;2022-10-16T16:29:55;17.60;99.90
18597;DHT22;9428;50.950;6.912;2022-10-16T16:32:42;17.50;99.90
18597;DHT22;9428;50.950;6.912;2022-10-16T16:35:30;17.50;99.90
18597;DHT22;9428;50.950;6.912;2022-10-16T16:38:17;17.50;99.90
18597;DHT22;9428;50.950;6.912;2022-10-16T16:41:11;17.60;99.90
18597;DHT22;9428;50.950;6.912;2022-10-16T16:44:04;17.50;99.90
18597;DHT22;9428;50.950;6.912;2022-10-16T16:46:52;17.40;99.90
18597;DHT22;9428;50.950;6.912;2022-10-16T16:49:40;17.40;99.90
18597;DHT22;9428;50.950;6.912;2022-10-16T16:52:29;17.40;99.90
18597;DHT22;9428;50.950;6.912;2022-10-16T16:55:16;17.40;99.90
18597;DHT22;9428;50.950;6.912;2022-10-16T16:58:03;17.40;99.90
18597;DHT22;9428;50.950;6.912;2022-10-16T17:00:52;17.30;99.90
18597;DHT22;9428;50.950;6.912;2022-10-16T17:03:42;17.30;99.90
18597;DHT22;9428;50.950;6.912;2022-10-16T17:06:30;17.50;99.90
18597;DHT22;9428;50.950;6.912;2022-10-16T17:09:17;17.30;99.90
18597;DHT22;9428;50.950;6.912;2022-10-16T17:12:04;17.30;99.90
18597;DHT22;9428;50.950;6.912;2022-10-16T17:14:51;17.30;99.90
18597;DHT22;9428;50.950;6.912;2022-10-16T17:17:40;17.30;99.90
18597;DHT22;9428;50.950;6.912;2022-10-16T17:20:27;17.30;99.90
18597;DHT22;9428;50.950;6.912;2022-10-16T17:23:16;17.30;99.90
18597;DHT22;9428;50.950;6.912;2022-10-16T17:26:05;17.30;99.90
18597;DHT22;9428;50.950;6.912;2022-10-16T17:28:53;17.30;99.90
18597;DHT22;9428;50.950;6.912;2022-10-16T17:31:41;17.30;99.90
18597;DHT22;9428;50.950;6.912;2022-10-16T17:34:29;17.30;99.90
18597;DHT22;9428;50.950;6.912;2022-10-16T17:37:17;17.40;99.90
18597;DHT22;9428;50.950;6.912;2022-10-16T17:40:05;17.50;99.90
18597;DHT22;9428;50.950;6.912;2022-10-16T17:42:52;17.40;99.90
18597;DHT22;9428;50.950;6.912;2022-10-16T17:45:39;17.40;99.90
18597;DHT22;9428;50.950;6.912;2022-10-16T17:48:26;17.50;99.90
18597;DHT22;9428;50.950;6.912;2022-10-16T17:51:18;17.50;99.90
18597;DHT22;9428;50.950;6.912;2022-10-16T17:54:05;17.40;99.90
18597;DHT22;9428;50.950;6.912;2022-10-16T17:56:53;17.40;99.90
18597;DHT22;9428;50.950;6.912;2022-10-16T17:59:40;17.40;99.90
18597;DHT22;9428;50.950;6.912;2022-10-16T18:02:27;17.50;99.90
18597;DHT22;9428;50.950;6.912;2022-10-16T18:05:15;17.50;99.90
18597;DHT22;9428;50.950;6.912;2022-10-16T18:08:04;17.50;99.90
18597;DHT22;9428;50.950;6.912;2022-10-16T18:10:51;17.40;99.90